createdAt,value
2023-05-09T00:00:05.806Z,99.99
2023-05-09T00:01:05.698Z,99.99
2023-05-09T00:02:05.646Z,99.99
2023-05-09T00:03:05.592Z,99.99
2023-05-09T00:04:05.489Z,99.99
2023-05-09T00:05:05.425Z,99.99
2023-05-09T00:06:05.317Z,99.99
2023-05-09T00:07:05.223Z,99.99
2023-05-09T00:08:05.156Z,99.99
2023-05-09T00:09:05.072Z,99.99
2023-05-09T00:10:05.025Z,99.99
2023-05-09T00:11:05.019Z,99.99
2023-05-09T00:12:04.832Z,99.99
2023-05-09T00:13:04.785Z,99.99
2023-05-09T00:14:04.679Z,99.99
2023-05-09T00:15:04.597Z,99.99
2023-05-09T00:16:04.533Z,99.99
2023-05-09T00:17:04.438Z,99.85
2023-05-09T00:18:04.390Z,99.99
2023-05-09T00:19:04.289Z,99.99
2023-05-09T00:20:04.218Z,99.99
2023-05-09T00:21:04.149Z,99.99
2023-05-09T00:22:04.049Z,99.99
2023-05-09T00:23:03.979Z,99.99
2023-05-09T00:24:03.891Z,99.99
2023-05-09T00:25:03.825Z,99.99
2023-05-09T00:26:03.736Z,99.99
2023-05-09T00:27:03.756Z,99.99
2023-05-09T00:28:03.572Z,99.99
2023-05-09T00:29:03.507Z,99.99
2023-05-09T00:30:03.424Z,99.99
2023-05-09T00:31:03.341Z,99.99
2023-05-09T00:32:03.312Z,99.99
2023-05-09T00:33:03.272Z,99.99
2023-05-09T00:34:03.109Z,99.99
2023-05-09T00:35:03.023Z,99.99
2023-05-09T00:36:02.952Z,99.99
2023-05-09T00:37:02.874Z,99.99
2023-05-09T00:38:02.814Z,99.99
2023-05-09T00:39:02.712Z,99.99
2023-05-09T00:40:02.632Z,99.99
2023-05-09T00:41:02.571Z,99.99
2023-05-09T00:42:02.483Z,99.99
2023-05-09T00:43:02.514Z,99.99
2023-05-09T00:44:02.327Z,99.99
2023-05-09T00:45:02.237Z,99.99
2023-05-09T00:46:02.261Z,99.99
2023-05-09T00:47:02.106Z,99.99
2023-05-09T00:48:02.027Z,99.99
2023-05-09T00:49:01.948Z,99.99
2023-05-09T00:50:01.850Z,99.99
2023-05-09T00:51:01.769Z,99.99
2023-05-09T00:52:01.685Z,99.99
2023-05-09T00:53:01.615Z,99.99
2023-05-09T00:54:01.549Z,99.99
2023-05-09T00:55:01.446Z,99.99
2023-05-09T00:56:01.379Z,99.99
2023-05-09T00:57:01.319Z,99.99
2023-05-09T00:58:01.220Z,99.99
2023-05-09T00:59:01.242Z,99.99
2023-05-09T01:00:01.074Z,99.99
2023-05-09T01:01:00.997Z,99.99
2023-05-09T01:02:00.926Z,99.99
2023-05-09T01:03:00.949Z,99.99
2023-05-09T01:04:00.749Z,99.99
2023-05-09T01:05:00.681Z,99.99
2023-05-09T01:06:00.597Z,99.99
2023-05-09T01:07:00.507Z,99.99
2023-05-09T01:08:00.440Z,99.99
2023-05-09T01:09:00.356Z,99.99
2023-05-09T01:10:00.276Z,99.99
2023-05-09T01:11:00.209Z,99.99
2023-05-09T01:12:00.168Z,99.99
2023-05-09T01:13:00.192Z,99.99
2023-05-09T01:13:59.962Z,99.99
2023-05-09T01:14:59.989Z,99.99
2023-05-09T01:15:59.844Z,99.99
2023-05-09T01:16:59.751Z,99.99
2023-05-09T01:17:59.665Z,99.99
2023-05-09T01:18:59.569Z,99.99
2023-05-09T01:19:59.491Z,99.99
2023-05-09T01:20:59.410Z,99.99
2023-05-09T01:21:59.329Z,99.99
2023-05-09T01:22:59.254Z,99.99
2023-05-09T01:23:59.180Z,99.99
2023-05-09T01:24:59.095Z,99.99
2023-05-09T01:25:59.012Z,99.99
2023-05-09T01:26:58.947Z,99.99
2023-05-09T01:27:58.856Z,99.99
2023-05-09T01:28:58.793Z,99.99
2023-05-09T01:29:58.707Z,99.99
2023-05-09T01:30:58.806Z,99.99
2023-05-09T01:31:58.563Z,99.99
2023-05-09T01:32:58.556Z,99.99
2023-05-09T01:33:58.406Z,99.99
2023-05-09T01:34:58.307Z,99.99
2023-05-09T01:35:58.230Z,99.99
2023-05-09T01:36:58.157Z,99.99
2023-05-09T01:37:58.074Z,99.99
2023-05-09T01:38:57.992Z,99.62
2023-05-09T01:39:57.915Z,99.99
2023-05-09T01:40:57.837Z,99.99
2023-05-09T01:41:57.751Z,99.99
2023-05-09T01:42:57.686Z,99.66
2023-05-09T01:43:57.627Z,99.57
2023-05-09T01:44:57.524Z,99.95
2023-05-09T01:45:57.453Z,99.71
2023-05-09T01:46:57.587Z,99.52
2023-05-09T01:47:57.330Z,99.33
2023-05-09T01:48:57.201Z,99.28
2023-05-09T01:49:57.130Z,99.14
2023-05-09T01:50:57.048Z,99.28
2023-05-09T01:51:56.969Z,98.94
2023-05-09T01:52:56.892Z,98.94
2023-05-09T01:53:56.818Z,98.85
2023-05-09T01:54:56.732Z,98.47
2023-05-09T01:55:56.650Z,98.28
2023-05-09T01:56:56.589Z,98.57
2023-05-09T01:57:56.505Z,97.99
2023-05-09T01:58:56.415Z,98.08
2023-05-09T01:59:56.342Z,98.32
2023-05-09T02:00:56.298Z,97.89
2023-05-09T02:01:56.189Z,97.61
2023-05-09T02:02:56.373Z,97.23
2023-05-09T02:03:56.017Z,97.32
2023-05-09T02:04:55.941Z,97.75
2023-05-09T02:05:55.861Z,97.80
2023-05-09T02:06:55.791Z,97.89
2023-05-09T02:07:55.704Z,97.32
2023-05-09T02:08:55.630Z,97.23
2023-05-09T02:09:55.554Z,97.03
2023-05-09T02:10:55.469Z,97.13
2023-05-09T02:11:55.389Z,96.66
2023-05-09T02:12:55.354Z,96.46
2023-05-09T02:13:55.241Z,96.17
2023-05-09T02:14:55.153Z,96.37
2023-05-09T02:15:55.072Z,96.27
2023-05-09T02:16:55.033Z,96.27
2023-05-09T02:17:54.919Z,96.46
2023-05-09T02:18:54.944Z,96.37
2023-05-09T02:19:54.757Z,96.17
2023-05-09T02:20:54.730Z,96.66
2023-05-09T02:21:54.604Z,96.17
2023-05-09T02:22:54.516Z,96.37
2023-05-09T02:23:54.450Z,96.17
2023-05-09T02:24:54.361Z,95.79
2023-05-09T02:25:54.279Z,95.89
2023-05-09T02:26:54.202Z,95.61
2023-05-09T02:27:54.129Z,95.89
2023-05-09T02:28:54.051Z,95.98
2023-05-09T02:29:53.968Z,95.70
2023-05-09T02:30:53.890Z,94.84
2023-05-09T02:31:53.827Z,95.03
2023-05-09T02:32:53.803Z,95.22
2023-05-09T02:33:53.653Z,95.03
2023-05-09T02:34:53.681Z,95.03
2023-05-09T02:35:53.504Z,94.65
2023-05-09T02:36:53.423Z,95.03
2023-05-09T02:37:53.337Z,95.22
2023-05-09T02:38:53.263Z,94.84
2023-05-09T02:39:53.175Z,95.22
2023-05-09T02:40:53.098Z,95.32
2023-05-09T02:41:53.017Z,94.65
2023-05-09T02:42:52.949Z,95.03
2023-05-09T02:43:52.867Z,94.89
2023-05-09T02:44:52.784Z,94.79
2023-05-09T02:45:52.770Z,94.60
2023-05-09T02:46:52.627Z,94.98
2023-05-09T02:47:52.570Z,94.51
2023-05-09T02:48:52.469Z,94.70
2023-05-09T02:49:52.390Z,94.31
2023-05-09T02:50:52.401Z,94.31
2023-05-09T02:51:52.225Z,94.41
2023-05-09T02:52:52.166Z,94.22
2023-05-09T02:53:52.076Z,93.84
2023-05-09T02:54:52.001Z,94.03
2023-05-09T02:55:51.906Z,93.36
2023-05-09T02:56:51.871Z,93.55
2023-05-09T02:57:58.969Z,93.65
2023-05-09T02:58:51.683Z,93.17
2023-05-09T02:59:51.593Z,93.55
2023-05-09T03:00:51.543Z,93.55
2023-05-09T03:01:51.458Z,94.22
2023-05-09T03:02:51.443Z,94.51
2023-05-09T03:03:51.435Z,93.93
2023-05-09T03:04:51.198Z,94.03
2023-05-09T03:05:51.128Z,93.93
2023-05-09T03:06:51.149Z,93.93
2023-05-09T03:07:50.967Z,93.55
2023-05-09T03:08:50.884Z,93.17
2023-05-09T03:09:50.804Z,92.97
2023-05-09T03:10:50.724Z,92.79
2023-05-09T03:11:50.642Z,92.12
2023-05-09T03:12:50.581Z,92.60
2023-05-09T03:13:50.493Z,92.41
2023-05-09T03:14:50.414Z,92.97
2023-05-09T03:15:50.363Z,92.60
2023-05-09T03:16:50.261Z,92.21
2023-05-09T03:17:50.209Z,92.31
2023-05-09T03:18:50.094Z,92.02
2023-05-09T03:19:50.018Z,92.60
2023-05-09T03:20:49.935Z,92.12
2023-05-09T03:21:49.852Z,92.31
2023-05-09T03:22:49.889Z,92.31
2023-05-09T03:23:49.705Z,92.50
2023-05-09T03:24:49.625Z,92.31
2023-05-09T03:25:49.541Z,92.60
2023-05-09T03:26:49.459Z,92.69
2023-05-09T03:27:49.467Z,92.41
2023-05-09T03:28:49.300Z,92.31
2023-05-09T03:29:49.218Z,92.50
2023-05-09T03:30:49.149Z,92.41
2023-05-09T03:31:49.146Z,92.41
2023-05-09T03:32:48.999Z,92.79
2023-05-09T03:33:48.912Z,92.21
2023-05-09T03:34:48.844Z,92.21
2023-05-09T03:35:48.744Z,92.12
2023-05-09T03:36:48.677Z,92.12
2023-05-09T03:37:48.598Z,92.60
2023-05-09T03:38:48.618Z,92.21
2023-05-09T03:39:48.434Z,92.60
2023-05-09T03:40:48.356Z,92.21
2023-05-09T03:41:48.271Z,93.17
2023-05-09T03:42:48.213Z,93.26
2023-05-09T03:43:48.138Z,93.55
2023-05-09T03:44:48.039Z,93.65
2023-05-09T03:45:47.953Z,94.12
2023-05-09T03:46:47.901Z,94.98
2023-05-09T03:47:47.860Z,94.60
2023-05-09T03:48:47.721Z,95.08
2023-05-09T03:49:47.649Z,95.65
2023-05-09T03:50:47.572Z,95.94
2023-05-09T03:51:47.484Z,95.75
2023-05-09T03:52:47.407Z,96.22
2023-05-09T03:53:47.330Z,96.32
2023-05-09T03:54:47.352Z,96.89
2023-05-09T03:55:47.173Z,96.42
2023-05-09T03:56:47.085Z,96.61
2023-05-09T03:57:47.008Z,97.42
2023-05-09T03:58:46.928Z,97.13
2023-05-09T03:59:46.848Z,97.18
2023-05-09T04:00:46.780Z,97.56
2023-05-09T04:01:46.707Z,96.94
2023-05-09T04:02:46.660Z,96.94
2023-05-09T04:03:46.655Z,97.61
2023-05-09T04:04:46.465Z,97.80
2023-05-09T04:05:46.378Z,98.18
2023-05-09T04:06:46.289Z,98.47
2023-05-09T04:07:46.224Z,99.04
2023-05-09T04:08:46.132Z,99.42
2023-05-09T04:09:46.055Z,98.85
2023-05-09T04:10:46.105Z,98.94
2023-05-09T04:11:45.907Z,99.80
2023-05-09T04:12:45.832Z,99.90
2023-05-09T04:13:45.739Z,99.61
2023-05-09T04:14:48.204Z,99.90
2023-05-09T04:15:45.583Z,99.80
2023-05-09T04:16:45.545Z,99.90
2023-05-09T04:17:45.486Z,99.42
2023-05-09T04:18:45.345Z,99.90
2023-05-09T04:19:45.266Z,99.52
2023-05-09T04:20:45.197Z,99.32
2023-05-09T04:21:45.105Z,99.90
2023-05-09T04:22:46.802Z,99.80
2023-05-09T04:23:44.951Z,99.99
2023-05-09T04:24:44.870Z,99.99
2023-05-09T04:25:44.791Z,99.99
2023-05-09T04:26:44.820Z,99.99
2023-05-09T04:27:44.629Z,99.99
2023-05-09T04:28:44.550Z,99.99
2023-05-09T04:29:44.476Z,99.99
2023-05-09T04:30:44.423Z,99.99
2023-05-09T04:31:44.566Z,99.99
2023-05-09T04:32:44.256Z,99.99
2023-05-09T04:33:44.148Z,99.99
2023-05-09T04:34:44.083Z,99.99
2023-05-09T04:35:44.007Z,99.99
2023-05-09T04:36:43.916Z,99.99
2023-05-09T04:37:43.841Z,99.99
2023-05-09T04:38:43.757Z,99.99
2023-05-09T04:39:43.673Z,99.99
2023-05-09T04:40:43.651Z,99.99
2023-05-09T04:41:43.533Z,99.99
2023-05-09T04:42:43.552Z,99.99
2023-05-09T04:43:43.367Z,99.99
2023-05-09T04:44:43.292Z,99.99
2023-05-09T04:45:43.202Z,99.99
2023-05-09T04:46:43.159Z,99.99
2023-05-09T04:47:43.051Z,99.99
2023-05-09T04:48:42.963Z,99.99
2023-05-09T04:49:42.882Z,99.99
2023-05-09T04:50:42.809Z,99.99
2023-05-09T04:51:42.732Z,99.32
2023-05-09T04:52:42.672Z,98.94
2023-05-09T04:53:42.566Z,97.99
2023-05-09T04:54:42.496Z,96.46
2023-05-09T04:55:42.406Z,95.98
2023-05-09T04:56:42.336Z,95.79
2023-05-09T04:57:42.249Z,95.22
2023-05-09T04:58:42.274Z,94.74
2023-05-09T04:59:42.088Z,94.56
2023-05-09T05:00:42.017Z,94.17
2023-05-09T05:01:41.971Z,93.70
2023-05-09T05:02:41.905Z,94.17
2023-05-09T05:03:41.776Z,92.83
2023-05-09T05:04:41.754Z,93.22
2023-05-09T05:05:41.667Z,93.51
2023-05-09T05:06:41.536Z,93.22
2023-05-09T05:07:41.456Z,93.26
2023-05-09T05:08:41.386Z,93.26
2023-05-09T05:09:41.304Z,93.36
2023-05-09T05:10:41.220Z,93.17
2023-05-09T05:11:45.073Z,92.69
2023-05-09T05:12:41.086Z,91.64
2023-05-09T05:13:40.982Z,92.31
2023-05-09T05:14:41.014Z,91.45
2023-05-09T05:15:40.828Z,92.31
2023-05-09T05:16:40.755Z,92.12
2023-05-09T05:17:40.689Z,91.55
2023-05-09T05:18:40.597Z,91.07
2023-05-09T05:19:40.499Z,91.36
2023-05-09T05:20:40.421Z,90.64
2023-05-09T05:21:40.347Z,91.31
2023-05-09T05:22:40.263Z,91.31
2023-05-09T05:23:40.199Z,91.69
2023-05-09T05:24:40.106Z,90.93
2023-05-09T05:25:40.042Z,91.55
2023-05-09T05:26:39.950Z,90.83
2023-05-09T05:27:39.877Z,91.21
2023-05-09T05:28:39.786Z,91.07
2023-05-09T05:29:39.720Z,91.26
2023-05-09T05:30:39.745Z,91.55
2023-05-09T05:31:39.562Z,90.88
2023-05-09T05:32:39.514Z,91.02
2023-05-09T05:33:39.390Z,90.88
2023-05-09T05:34:39.318Z,91.26
2023-05-09T05:35:39.256Z,91.36
2023-05-09T05:36:39.148Z,91.16
2023-05-09T05:37:39.079Z,91.07
2023-05-09T05:38:38.991Z,90.97
2023-05-09T05:39:38.917Z,90.88
2023-05-09T05:40:38.843Z,91.26
2023-05-09T05:41:38.760Z,91.26
2023-05-09T05:42:38.679Z,91.64
2023-05-09T05:43:38.604Z,91.93
2023-05-09T05:44:38.569Z,92.60
2023-05-09T05:45:38.451Z,92.31
2023-05-09T05:46:38.464Z,92.69
2023-05-09T05:47:38.374Z,92.12
2023-05-09T05:48:38.206Z,92.12
2023-05-09T05:49:38.122Z,93.26
2023-05-09T05:50:38.044Z,93.26
2023-05-09T05:51:37.975Z,92.41
2023-05-09T05:52:37.886Z,90.78
2023-05-09T05:53:37.799Z,90.69
2023-05-09T05:54:37.720Z,90.78
2023-05-09T05:55:37.644Z,91.26
2023-05-09T05:56:37.568Z,91.07
2023-05-09T05:57:37.485Z,91.64
2023-05-09T05:58:37.397Z,91.16
2023-05-09T05:59:37.330Z,90.92
2023-05-09T06:00:37.254Z,89.92
2023-05-09T06:01:37.169Z,90.25
2023-05-09T06:02:37.303Z,90.64
2023-05-09T06:03:37.159Z,89.20
2023-05-09T06:04:36.935Z,89.59
2023-05-09T06:05:36.849Z,90.50
2023-05-09T06:06:36.768Z,90.54
2023-05-09T06:07:36.687Z,90.45
2023-05-09T06:08:36.611Z,90.06
2023-05-09T06:09:36.535Z,89.01
2023-05-09T06:10:36.461Z,89.64
2023-05-09T06:11:36.372Z,89.64
2023-05-09T06:12:36.300Z,90.35
2023-05-09T06:13:36.222Z,88.87
2023-05-09T06:14:36.142Z,89.49
2023-05-09T06:15:36.062Z,89.78
2023-05-09T06:17:35.930Z,88.92
2023-05-09T06:18:35.926Z,88.44
2023-05-09T06:19:35.741Z,87.58
2023-05-09T06:20:35.659Z,87.39
2023-05-09T06:21:35.590Z,87.39
2023-05-09T06:22:35.508Z,87.10
2023-05-09T06:23:35.432Z,87.39
2023-05-09T06:24:36.524Z,88.44
2023-05-09T06:25:35.270Z,88.82
2023-05-09T06:26:35.200Z,88.25
2023-05-09T06:27:35.113Z,86.63
2023-05-09T06:28:35.027Z,88.25
2023-05-09T06:29:34.953Z,87.62
2023-05-09T06:30:34.874Z,86.47
2023-05-09T06:31:34.799Z,85.71
2023-05-09T06:32:34.735Z,84.85
2023-05-09T06:33:34.646Z,84.56
2023-05-09T06:34:34.657Z,85.71
2023-05-09T06:35:34.475Z,85.81
2023-05-09T06:36:34.396Z,86.67
2023-05-09T06:37:34.318Z,84.76
2023-05-09T06:38:34.244Z,84.66
2023-05-09T06:39:34.174Z,85.14
2023-05-09T06:40:34.113Z,85.33
2023-05-09T06:41:34.021Z,85.90
2023-05-09T06:42:33.927Z,85.33
2023-05-09T06:43:33.848Z,84.56
2023-05-09T06:44:33.771Z,83.99
2023-05-09T06:45:33.730Z,82.56
2023-05-09T06:46:33.666Z,81.70
2023-05-09T06:47:33.590Z,82.18
2023-05-09T06:48:33.454Z,82.08
2023-05-09T06:49:33.370Z,81.99
2023-05-09T06:50:33.397Z,81.74
2023-05-09T06:51:33.217Z,82.89
2023-05-09T06:52:33.134Z,85.38
2023-05-09T06:53:33.062Z,84.23
2023-05-09T06:54:32.981Z,83.17
2023-05-09T06:55:32.902Z,82.51
2023-05-09T06:56:32.817Z,81.45
2023-05-09T06:57:32.752Z,81.16
2023-05-09T06:58:32.657Z,82.31
2023-05-09T06:59:32.581Z,81.55
2023-05-09T07:00:32.521Z,82.89
2023-05-09T07:01:32.447Z,84.42
2023-05-09T07:02:32.437Z,82.79
2023-05-09T07:03:32.277Z,82.51
2023-05-09T07:04:32.208Z,80.92
2023-05-09T07:05:32.172Z,79.49
2023-05-09T07:06:32.043Z,80.73
2023-05-09T07:07:31.958Z,79.96
2023-05-09T07:08:31.872Z,78.91
2023-05-09T07:09:31.810Z,80.35
2023-05-09T07:10:31.716Z,80.06
2023-05-09T07:11:31.658Z,81.30
2023-05-09T07:12:31.556Z,80.44
2023-05-09T07:13:31.483Z,79.96
2023-05-09T07:14:31.408Z,80.16
2023-05-09T07:15:41.228Z,80.35
2023-05-09T07:16:31.269Z,79.00
2023-05-09T07:17:31.189Z,79.29
2023-05-09T07:18:31.083Z,81.21
2023-05-09T07:19:31.012Z,82.74
2023-05-09T07:20:30.936Z,82.54
2023-05-09T07:21:30.874Z,79.43
2023-05-09T07:22:32.658Z,77.90
2023-05-09T07:23:30.696Z,76.37
2023-05-09T07:24:30.622Z,75.12
2023-05-09T07:25:30.539Z,76.37
2023-05-09T07:26:30.473Z,76.65
2023-05-09T07:27:30.388Z,78.13
2023-05-09T07:28:30.320Z,76.89
2023-05-09T07:29:30.226Z,77.55
2023-05-09T07:30:30.153Z,79.18
2023-05-09T07:31:30.095Z,76.40
2023-05-09T07:32:30.012Z,76.69
2023-05-09T07:33:29.912Z,75.01
2023-05-09T07:34:29.853Z,72.42
2023-05-09T07:35:29.753Z,71.56
2023-05-09T07:36:29.690Z,72.32
2023-05-09T07:37:29.600Z,71.84
2023-05-09T07:38:29.613Z,72.42
2023-05-09T07:39:29.448Z,71.27
2023-05-09T07:40:29.363Z,71.56
2023-05-09T07:41:29.284Z,72.07
2023-05-09T07:42:29.205Z,73.13
2023-05-09T07:43:29.128Z,72.36
2023-05-09T07:44:29.050Z,73.32
2023-05-09T07:45:29.034Z,71.50
2023-05-09T07:46:28.937Z,71.11
2023-05-09T07:47:28.851Z,72.45
2023-05-09T07:48:28.739Z,72.99
2023-05-09T07:49:28.669Z,71.98
2023-05-09T07:50:28.583Z,73.99
2023-05-09T07:51:28.508Z,73.51
2023-05-09T07:52:28.428Z,72.36
2023-05-09T07:53:28.346Z,71.11
2023-05-09T07:54:28.376Z,71.02
2023-05-09T07:55:28.197Z,71.59
2023-05-09T07:56:28.123Z,70.06
2023-05-09T07:57:28.041Z,69.58
2023-05-09T07:58:27.968Z,69.90
2023-05-09T07:59:27.891Z,69.42
2023-05-09T08:00:27.818Z,68.18
2023-05-09T08:01:27.729Z,68.46
2023-05-09T08:02:27.711Z,70.86
2023-05-09T08:03:27.662Z,69.33
2023-05-09T08:04:27.514Z,69.23
2023-05-09T08:05:27.443Z,67.89
2023-05-09T08:06:27.347Z,70.09
2023-05-09T08:07:27.263Z,71.44
2023-05-09T08:08:27.194Z,71.05
2023-05-09T08:09:27.115Z,70.00
2023-05-09T08:10:27.145Z,70.86
2023-05-09T08:11:26.957Z,69.81
2023-05-09T08:12:26.892Z,70.00
2023-05-09T08:13:26.849Z,69.33
2023-05-09T08:14:26.722Z,67.35
2023-05-09T08:15:26.648Z,65.39
2023-05-09T08:16:26.596Z,66.77
2023-05-09T08:17:26.530Z,65.72
2023-05-09T08:18:26.430Z,65.23
2023-05-09T08:19:26.448Z,64.76
2023-05-09T08:20:26.274Z,67.60
2023-05-09T08:21:26.192Z,66.93
2023-05-09T08:22:26.116Z,66.26
2023-05-09T08:23:26.039Z,68.37
2023-05-09T08:24:25.964Z,68.12
2023-05-09T08:25:25.895Z,67.63
2023-05-09T08:26:25.926Z,67.35
2023-05-09T08:27:25.748Z,67.96
2023-05-09T08:28:25.662Z,69.40
2023-05-09T08:29:25.583Z,66.71
2023-05-09T08:30:25.496Z,65.65
2023-05-09T08:31:25.454Z,66.64
2023-05-09T08:32:25.345Z,65.40
2023-05-09T08:33:25.272Z,62.29
2023-05-09T08:34:25.193Z,63.45
2023-05-09T08:35:25.130Z,65.01
2023-05-09T08:36:25.051Z,63.54
2023-05-09T08:37:24.980Z,62.48
2023-05-09T08:38:24.892Z,62.48
2023-05-09T08:39:24.820Z,63.16
2023-05-09T08:40:24.742Z,64.50
2023-05-09T08:41:24.669Z,64.22
2023-05-09T08:42:26.358Z,63.45
2023-05-09T08:43:24.510Z,62.29
2023-05-09T08:44:24.434Z,62.39
2023-05-09T08:45:24.362Z,62.68
2023-05-09T08:46:24.339Z,62.77
2023-05-09T08:47:24.227Z,62.39
2023-05-09T08:48:24.133Z,62.48
2023-05-09T08:49:24.054Z,61.91
2023-05-09T08:50:23.990Z,63.06
2023-05-09T08:51:23.904Z,64.53
2023-05-09T08:52:23.826Z,61.65
2023-05-09T08:53:23.741Z,62.13
2023-05-09T08:54:23.668Z,63.19
2023-05-09T08:55:23.604Z,62.61
2023-05-09T08:56:23.514Z,63.32
2023-05-09T08:57:23.442Z,61.55
2023-05-09T08:58:23.479Z,61.36
2023-05-09T08:59:23.297Z,61.55
2023-05-09T09:00:23.543Z,62.26
2023-05-09T09:01:23.162Z,61.55
2023-05-09T09:02:23.061Z,64.18
2023-05-09T09:03:22.991Z,64.09
2023-05-09T09:04:22.953Z,62.16
2023-05-09T09:05:39.881Z,59.38
2023-05-09T09:06:22.770Z,59.95
2023-05-09T09:07:22.685Z,59.47
2023-05-09T09:08:22.618Z,60.05
2023-05-09T09:09:22.539Z,59.95
2023-05-09T09:10:22.455Z,59.95
2023-05-09T09:11:22.399Z,60.34
2023-05-09T09:12:22.302Z,59.76
2023-05-09T09:13:22.252Z,59.66
2023-05-09T09:14:22.248Z,59.09
2023-05-09T09:15:22.083Z,58.32
2023-05-09T09:16:22.076Z,59.57
2023-05-09T09:17:21.937Z,61.58
2023-05-09T09:18:21.865Z,61.40
2023-05-09T09:19:21.783Z,59.76
2023-05-09T09:20:21.703Z,59.86
2023-05-09T09:21:21.622Z,60.82
2023-05-09T09:22:21.588Z,61.23
2023-05-09T09:23:21.486Z,62.29
2023-05-09T09:24:21.429Z,60.34
2023-05-09T09:25:21.319Z,58.73
2023-05-09T09:26:21.253Z,59.22
2023-05-09T09:27:21.177Z,58.25
2023-05-09T09:28:21.100Z,55.94
2023-05-09T09:29:21.066Z,54.89
2023-05-09T09:30:21.047Z,57.68
2023-05-09T09:31:20.973Z,60.01
2023-05-09T09:32:21.101Z,60.66
2023-05-09T09:33:20.725Z,58.15
2023-05-09T09:34:20.646Z,59.31
2023-05-09T09:35:20.592Z,58.80
2023-05-09T09:36:20.500Z,57.65
2023-05-09T09:37:20.418Z,56.78
2023-05-09T09:38:20.351Z,58.42
2023-05-09T09:39:20.287Z,58.35
2023-05-09T09:40:20.254Z,56.71
2023-05-09T09:41:20.128Z,55.08
2023-05-09T09:42:20.062Z,54.99
2023-05-09T09:43:19.970Z,55.08
2023-05-09T09:44:19.909Z,55.37
2023-05-09T09:45:19.825Z,56.04
2023-05-09T09:46:19.883Z,57.68
2023-05-09T09:47:19.681Z,54.89
2023-05-09T09:48:19.621Z,55.85
2023-05-09T09:49:19.518Z,56.43
2023-05-09T09:50:19.515Z,57.90
2023-05-09T09:51:19.372Z,57.68
2023-05-09T09:52:19.301Z,60.17
2023-05-09T09:53:19.218Z,61.94
2023-05-09T09:54:19.155Z,57.90
2023-05-09T09:55:19.075Z,55.40
2023-05-09T09:56:19.007Z,55.11
2023-05-09T09:57:18.923Z,54.91
2023-05-09T09:58:18.853Z,55.88
2023-05-09T09:59:18.807Z,55.20
2023-05-09T10:00:18.758Z,56.07
2023-05-09T10:01:18.733Z,56.45
2023-05-09T10:02:18.657Z,56.07
2023-05-09T10:03:18.602Z,55.30
2023-05-09T10:04:18.419Z,55.98
2023-05-09T10:05:18.365Z,57.51
2023-05-09T10:06:18.261Z,56.96
2023-05-09T10:07:18.174Z,56.77
2023-05-09T10:08:18.097Z,55.13
2023-05-09T10:09:18.034Z,54.43
2023-05-09T10:10:18.005Z,54.05
2023-05-09T10:11:17.899Z,56.36
2023-05-09T10:12:17.805Z,56.65
2023-05-09T10:13:17.773Z,60.21
2023-05-09T10:14:17.650Z,60.72
2023-05-09T10:15:17.586Z,60.24
2023-05-09T10:16:21.309Z,58.31
2023-05-09T10:17:17.494Z,57.54
2023-05-09T10:18:17.600Z,58.79
2023-05-09T10:19:17.273Z,56.10
2023-05-09T10:20:17.357Z,55.23
2023-05-09T10:21:17.128Z,54.36
2023-05-09T10:22:17.059Z,56.00
2023-05-09T10:23:16.982Z,58.02
2023-05-09T10:24:16.910Z,58.82
2023-05-09T10:25:17.016Z,57.95
2023-05-09T10:26:16.760Z,55.55
2023-05-09T10:27:16.688Z,55.16
2023-05-09T10:28:16.610Z,57.95
2023-05-09T10:29:16.532Z,57.76
2023-05-09T10:30:16.461Z,56.70
2023-05-09T10:31:16.451Z,58.24
2023-05-09T10:32:16.318Z,58.15
2023-05-09T10:33:16.261Z,58.65
2023-05-09T10:34:16.163Z,56.82
2023-05-09T10:35:16.421Z,54.78
2023-05-09T10:36:16.020Z,56.22
2023-05-09T10:37:15.935Z,57.50
2023-05-09T10:38:15.863Z,56.15
2023-05-09T10:39:15.791Z,54.00
2023-05-09T10:40:15.743Z,53.94
2023-05-09T10:41:15.648Z,55.07
2023-05-09T10:42:15.575Z,53.91
2023-05-09T10:43:15.496Z,55.16
2023-05-09T10:44:15.418Z,56.99
2023-05-09T10:45:15.600Z,55.45
2023-05-09T10:46:15.343Z,55.07
2023-05-09T10:47:15.196Z,56.05
2023-05-09T10:48:15.129Z,56.63
2023-05-09T10:49:15.046Z,56.05
2023-05-09T10:50:15.074Z,54.03
2023-05-09T10:51:14.909Z,53.36
2023-05-09T10:52:14.830Z,53.27
2023-05-09T10:53:14.756Z,53.94
2023-05-09T10:54:14.688Z,53.84
2023-05-09T10:55:14.750Z,54.03
2023-05-09T10:56:14.533Z,53.48
2023-05-09T10:57:14.459Z,53.29
2023-05-09T10:58:14.381Z,53.39
2023-05-09T10:59:14.306Z,52.91
2023-05-09T11:00:14.244Z,52.81
2023-05-09T11:01:14.209Z,54.25
2023-05-09T11:02:14.085Z,54.74
2023-05-09T11:03:14.105Z,52.97
2023-05-09T11:04:13.944Z,53.36
2023-05-09T11:05:14.077Z,52.97
2023-05-09T11:06:13.897Z,51.53
2023-05-09T11:07:13.722Z,52.49
2023-05-09T11:08:13.650Z,52.49
2023-05-09T11:09:13.579Z,51.82
2023-05-09T11:10:13.516Z,54.74
2023-05-09T11:11:13.427Z,51.75
2023-05-09T11:12:13.364Z,50.69
2023-05-09T11:13:13.325Z,51.94
2023-05-09T11:14:13.213Z,51.26
2023-05-09T11:15:13.266Z,50.59
2023-05-09T11:16:13.121Z,52.52
2023-05-09T11:17:13.011Z,50.59
2023-05-09T11:18:13.003Z,50.69
2023-05-09T11:19:12.843Z,51.56
2023-05-09T11:20:12.767Z,51.75
2023-05-09T11:21:12.690Z,53.22
2023-05-09T11:22:12.725Z,51.07
2023-05-09T11:23:12.550Z,50.30
2023-05-09T11:24:12.479Z,50.30
2023-05-09T11:25:12.619Z,48.86
2023-05-09T11:26:12.324Z,50.11
2023-05-09T11:27:12.254Z,48.57
2023-05-09T11:28:12.203Z,47.31
2023-05-09T11:29:12.109Z,47.10
2023-05-09T11:30:12.036Z,48.57
2023-05-09T11:31:11.985Z,49.82
2023-05-09T11:32:12.013Z,48.95
2023-05-09T11:33:11.873Z,50.30
2023-05-09T11:34:11.748Z,50.01
2023-05-09T11:35:11.824Z,51.48
2023-05-09T11:36:11.604Z,49.84
2023-05-09T11:37:11.532Z,49.07
2023-05-09T11:38:11.558Z,49.46
2023-05-09T11:39:11.397Z,49.94
2023-05-09T11:40:11.307Z,49.75
2023-05-09T11:41:11.233Z,50.04
2023-05-09T11:42:11.155Z,50.52
2023-05-09T11:43:11.090Z,49.94
2023-05-09T11:44:11.009Z,49.19
2023-05-09T11:45:10.932Z,47.44
2023-05-09T11:46:10.889Z,48.40
2023-05-09T11:47:10.794Z,49.00
2023-05-09T11:48:10.774Z,49.77
2023-05-09T11:49:12.170Z,48.81
2023-05-09T11:50:10.604Z,47.85
2023-05-09T11:51:10.500Z,48.52
2023-05-09T11:52:10.424Z,47.27
2023-05-09T11:53:10.353Z,47.45
2023-05-09T11:54:10.383Z,47.55
2023-05-09T11:55:12.286Z,48.52
2023-05-09T11:56:10.211Z,48.03
2023-05-09T11:57:10.055Z,46.97
2023-05-09T11:58:09.989Z,47.85
2023-05-09T11:59:09.909Z,47.05
2023-05-09T12:00:09.850Z,44.64
2023-05-09T12:01:11.247Z,46.95
2023-05-09T12:02:09.740Z,48.47
2023-05-09T12:03:09.795Z,49.65
2023-05-09T12:04:09.633Z,48.38
2023-05-09T12:05:09.473Z,48.57
2023-05-09T12:06:09.405Z,47.80
2023-05-09T12:07:09.331Z,48.66
2023-05-09T12:08:09.257Z,48.66
2023-05-09T12:09:09.177Z,47.24
2023-05-09T12:10:09.244Z,46.95
2023-05-09T12:11:09.033Z,47.34
2023-05-09T12:12:08.958Z,48.21
2023-05-09T12:13:09.012Z,48.11
2023-05-09T12:14:08.816Z,49.46
2023-05-09T12:15:08.739Z,50.81
2023-05-09T12:16:08.726Z,51.03
2023-05-09T12:17:08.622Z,52.76
2023-05-09T12:18:08.685Z,51.70
2023-05-09T12:19:08.447Z,48.03
2023-05-09T12:20:08.395Z,47.07
2023-05-09T12:21:08.315Z,46.78
2023-05-09T12:22:08.233Z,46.20
2023-05-09T12:23:08.164Z,48.33
2023-05-09T12:24:08.084Z,46.30
2023-05-09T12:25:08.026Z,46.88
2023-05-09T12:26:08.039Z,48.88
2023-05-09T12:27:07.884Z,50.90
2023-05-09T12:28:07.806Z,49.65
2023-05-09T12:29:07.730Z,50.52
2023-05-09T12:30:07.649Z,50.42
2023-05-09T12:31:07.613Z,49.29
2023-05-09T12:32:07.507Z,48.71
2023-05-09T12:33:07.447Z,48.61
2023-05-09T12:34:07.360Z,48.81
2023-05-09T12:35:07.292Z,49.68
2023-05-09T12:36:07.224Z,49.96
2023-05-09T12:37:07.135Z,50.26
2023-05-09T12:38:07.081Z,49.87
2023-05-09T12:39:06.993Z,50.26
2023-05-09T12:40:06.922Z,49.77
2023-05-09T12:41:09.107Z,50.04
2023-05-09T12:42:06.881Z,50.93
2023-05-09T12:43:06.707Z,52.25
2023-05-09T12:44:06.641Z,51.99
2023-05-09T12:45:06.605Z,50.06
2023-05-09T12:46:06.485Z,46.40
2023-05-09T12:47:06.427Z,44.95
2023-05-09T12:48:06.375Z,47.85
2023-05-09T12:49:06.273Z,49.68
2023-05-09T12:50:06.199Z,47.75
2023-05-09T12:51:06.125Z,52.37
2023-05-09T12:52:07.769Z,50.84